This is the latest recevied weather packets stored in our database for station/object KI7JYE. If no packets are shown the sender has not sent any weather packets the latest 10 day(s).
| Time | Temp. | Humidity | Pressure | Rain* | Wind** | Luminosity | Snow |
|---|---|---|---|---|---|---|---|
| 1778107611 | 22.22° C | 60% | 1018.6 hPa | 0 mm | - | 578 W/m² | - |
| 1778107308 | 22.78° C | 59% | 1018.7 hPa | 0 mm | - | 286 W/m² | - |
| 1778107005 | 21.67° C | 62% | 1018.8 hPa | 0 mm | - | 251 W/m² | - |
| 1778106701 | 21.11° C | 63% | 1019 hPa | 0 mm | - | 296 W/m² | - |
| 1778106398 | 21.11° C | 64% | 1018.8 hPa | 0 mm | - | 297 W/m² | - |
| 1778106094 | 21.11° C | 65% | 1018.9 hPa | 0 mm | - | 278 W/m² | - |
| 1778105792 | 21.67° C | 61% | 1019 hPa | 0 mm | - | 341 W/m² | - |
| 1778105490 | 21.11° C | 63% | 1019 hPa | 0 mm | - | 306 W/m² | - |
| 1778105186 | 21.11° C | 63% | 1018.9 hPa | 0 mm | - | 257 W/m² | - |
| 1778104881 | 20.56° C | 64% | 1019 hPa | 0 mm | - | 255 W/m² | - |
| 1778104578 | 20.56° C | 65% | 1018.9 hPa | 0 mm | - | 304 W/m² | - |
| 1778104273 | 21.11° C | 64% | 1018.9 hPa | 0 mm | - | 675 W/m² | - |
| 1778103971 | 20.56° C | 64% | 1019 hPa | 0 mm | - | 287 W/m² | - |
| 1778103668 | 21.11° C | 64% | 1019.1 hPa | 0 mm | - | 275 W/m² | - |
| 1778103366 | 20.56° C | 65% | 1018.8 hPa | 0 mm | - | 666 W/m² | - |
| 1778103063 | 20.56° C | 66% | 1019.2 hPa | 0 mm | - | 269 W/m² | - |
| 1778102760 | 20° C | 67% | 1019.3 hPa | 0 mm | - | 316 W/m² | - |
| 1778102455 | 20.56° C | 64% | 1019.2 hPa | 0 mm | - | 618 W/m² | - |
| 1778102151 | 19.44° C | 70% | 1019.4 hPa | 0 mm | - | 398 W/m² | - |
| 1778101848 | 20° C | 68% | 1019.3 hPa | 0 mm | - | 294 W/m² | - |
| 1778101545 | 20° C | 67% | 1019.6 hPa | 0 mm | - | 252 W/m² | - |
| 1778101241 | 20.56° C | 66% | 1019.6 hPa | 0 mm | - | 246 W/m² | - |
| 1778100938 | 20° C | 68% | 1019.4 hPa | 0 mm | - | 320 W/m² | - |
| 1778100633 | 18.89° C | 72% | 1019.2 hPa | 0 mm | - | 316 W/m² | - |
| 1778100332 | 18.89° C | 72% | 1019.3 hPa | 0 mm | - | 288 W/m² | - |
* Rain latest hour (hover to see other rain measurements)
** Current wind speed in m/s (hover to see current wind gust speed)